Time;durP1;ratioP1;P1;durP2;ratioP2;P2;SDS_P1;SDS_P2;PMS_P1;PMS_P2;Temp;Humidity;BMP_temperature;BMP_pressure;BME280_temperature;BME280_humidity;BME280_pressure;Samples;Min_cycle;Max_cycle;Signal;HPM_P1;HPM_P2
2022/08/27 00:02:01;;;;;;;7.20;5.47;;;;;;;;;;5050187;28;20443;-74
2022/08/27 00:04:28;;;;;;;8.67;5.60;;;;;;;;;;5050761;28;20545;-74
2022/08/27 00:06:56;;;;;;;7.20;5.17;;;;;;;;;;5050272;28;20534;-73
2022/08/27 00:09:23;;;;;;;9.60;6.53;;;;;;;;;;5051000;28;20447;-73
2022/08/27 00:11:50;;;;;;;10.97;7.60;;;;;;;;;;5050472;28;20454;-74
2022/08/27 00:14:17;;;;;;;8.33;6.23;;;;;;;;;;5050728;28;20825;-74
2022/08/27 00:16:45;;;;;;;10.37;6.70;;;;;;;;;;5050997;28;20447;-74
2022/08/27 00:19:13;;;;;;;7.10;5.93;;;;;;;;;;5050922;28;20455;-74
2022/08/27 00:21:41;;;;;;;11.90;6.60;;;;;;;;;;5050529;28;20593;-74
2022/08/27 00:24:08;;;;;;;9.80;6.77;;;;;;;;;;5049342;28;20447;-74
2022/08/27 00:26:35;;;;;;;10.33;7.23;;;;;;;;;;5050122;28;20439;-74
2022/08/27 00:29:02;;;;;;;10.80;8.30;;;;;;;;;;5049552;28;20465;-74
2022/08/27 00:31:29;;;;;;;9.70;7.50;;;;;;;;;;5050287;28;20459;-75
2022/08/27 00:33:57;;;;;;;10.47;8.00;;;;;;;;;;5049838;28;20457;-75
2022/08/27 00:36:25;;;;;;;10.23;7.47;;;;;;;;;;5049658;28;20462;-74
2022/08/27 00:38:53;;;;;;;9.80;7.73;;;;;;;;;;5049488;28;20443;-72
2022/08/27 00:41:20;;;;;;;12.37;8.47;;;;;;;;;;5050380;28;20913;-74
2022/08/27 00:43:49;;;;;;;11.10;8.70;;;;;;;;;;5049513;28;20458;-72
2022/08/27 00:46:20;;;;;;;10.37;7.50;;;;;;;;;;5056701;28;20533;-74
2022/08/27 00:48:48;;;;;;;10.07;7.40;;;;;;;;;;5051092;28;20439;-68
2022/08/27 00:51:15;;;;;;;12.33;7.67;;;;;;;;;;5050129;28;20454;-75
2022/08/27 00:53:44;;;;;;;11.67;7.10;;;;;;;;;;5050132;28;20450;-75
2022/08/27 00:56:14;;;;;;;10.70;8.13;;;;;;;;;;5050125;28;20451;-74
2022/08/27 00:58:43;;;;;;;15.30;8.70;;;;;;;;;;5054469;28;20533;-75
2022/08/27 01:01:11;;;;;;;11.13;8.07;;;;;;;;;;5053646;28;20480;-75
2022/08/27 01:03:39;;;;;;;9.77;7.90;;;;;;;;;;5054317;28;20453;-75
2022/08/27 01:06:10;;;;;;;13.20;9.20;;;;;;;;;;5053139;28;20446;-75
2022/08/27 01:08:40;;;;;;;13.97;9.00;;;;;;;;;;5054228;28;20845;-75
2022/08/27 01:11:09;;;;;;;11.90;8.67;;;;;;;;;;5053940;28;20734;-75
2022/08/27 01:13:37;;;;;;;13.30;10.40;;;;;;;;;;5053812;28;20991;-75
2022/08/27 01:16:05;;;;;;;12.37;8.53;;;;;;;;;;5053509;28;20443;-75
2022/08/27 01:18:34;;;;;;;13.93;10.37;;;;;;;;;;5054325;28;20496;-75
2022/08/27 01:21:17;;;;;;;11.10;9.43;;;;;;;;;;5053052;28;20976;-75
2022/08/27 01:23:49;;;;;;;12.97;10.40;;;;;;;;;;5048382;28;20449;-75
2022/08/27 01:26:19;;;;;;;13.60;10.97;;;;;;;;;;5053557;28;20451;-75
2022/08/27 01:28:46;;;;;;;12.30;9.80;;;;;;;;;;5053837;28;20828;-75
2022/08/27 01:31:13;;;;;;;16.80;12.23;;;;;;;;;;5053956;28;20458;-75
2022/08/27 01:33:41;;;;;;;14.67;10.40;;;;;;;;;;5053493;28;20457;-74
2022/08/27 01:36:08;;;;;;;14.83;10.60;;;;;;;;;;5048150;28;20454;-75
2022/08/27 01:38:35;;;;;;;12.90;10.50;;;;;;;;;;5053441;28;20451;-75
2022/08/27 01:41:03;;;;;;;11.67;9.67;;;;;;;;;;5052838;28;20489;-75
2022/08/27 01:43:31;;;;;;;12.10;9.30;;;;;;;;;;5053338;28;20456;-75
2022/08/27 01:45:59;;;;;;;14.37;9.63;;;;;;;;;;5052588;28;20455;-75
2022/08/27 01:48:26;;;;;;;12.23;10.10;;;;;;;;;;5053504;28;20446;-75
2022/08/27 01:50:53;;;;;;;13.47;10.40;;;;;;;;;;5053045;28;20454;-74
2022/08/27 01:53:22;;;;;;;14.43;10.20;;;;;;;;;;5053540;28;20455;-75
2022/08/27 01:55:50;;;;;;;14.10;9.73;;;;;;;;;;5052522;28;21022;-74
2022/08/27 01:58:20;;;;;;;16.23;10.80;;;;;;;;;;5053210;28;20537;-72
2022/08/27 02:00:50;;;;;;;14.63;10.77;;;;;;;;;;5052806;28;20970;-73
2022/08/27 02:03:18;;;;;;;14.93;10.43;;;;;;;;;;5052910;28;20443;-72
2022/08/27 02:05:45;;;;;;;14.43;10.27;;;;;;;;;;5052682;28;20485;-70
2022/08/27 02:08:14;;;;;;;13.90;8.80;;;;;;;;;;5053475;28;20508;-75
2022/08/27 02:10:42;;;;;;;13.40;10.30;;;;;;;;;;5052917;28;20854;-74
2022/08/27 02:13:11;;;;;;;14.90;10.60;;;;;;;;;;5052476;28;20457;-74
2022/08/27 02:15:38;;;;;;;14.37;9.23;;;;;;;;;;5042144;28;20482;-74
2022/08/27 02:18:08;;;;;;;15.47;10.70;;;;;;;;;;5057613;28;20461;-76
2022/08/27 02:20:35;;;;;;;14.83;9.53;;;;;;;;;;5052627;28;20484;-75
2022/08/27 02:23:03;;;;;;;14.60;10.37;;;;;;;;;;5052176;28;20438;-76
2022/08/27 02:25:30;;;;;;;15.97;10.17;;;;;;;;;;5052499;28;20517;-76
2022/08/27 02:27:58;;;;;;;14.20;10.37;;;;;;;;;;5052215;28;20512;-75
2022/08/27 02:30:26;;;;;;;12.83;9.90;;;;;;;;;;5052800;28;20462;-75
2022/08/27 02:32:53;;;;;;;12.73;9.00;;;;;;;;;;5052290;28;20451;-73
2022/08/27 02:35:23;;;;;;;18.87;11.47;;;;;;;;;;5051963;28;20457;-75
2022/08/27 02:37:50;;;;;;;13.30;9.67;;;;;;;;;;5051752;28;20530;-75
2022/08/27 02:40:18;;;;;;;16.00;9.80;;;;;;;;;;5052423;28;20451;-72
2022/08/27 02:42:46;;;;;;;16.13;11.20;;;;;;;;;;5052571;28;20950;-75
2022/08/27 02:45:14;;;;;;;16.23;11.97;;;;;;;;;;5052033;28;20540;-74
2022/08/27 02:47:42;;;;;;;15.43;10.70;;;;;;;;;;5052715;28;20534;-75
2022/08/27 02:50:10;;;;;;;17.87;11.93;;;;;;;;;;5051938;28;20451;-75
2022/08/27 02:52:38;;;;;;;19.83;11.40;;;;;;;;;;5052553;28;20450;-75
2022/08/27 02:55:06;;;;;;;20.83;11.57;;;;;;;;;;5051186;28;20443;-75
2022/08/27 02:57:33;;;;;;;14.60;10.57;;;;;;;;;;5052171;28;20461;-73
2022/08/27 03:00:01;;;;;;;17.30;10.27;;;;;;;;;;5051609;28;20454;-75
2022/08/27 03:02:28;;;;;;;16.37;11.23;;;;;;;;;;5039366;28;20578;-75
2022/08/27 03:04:55;;;;;;;17.50;11.07;;;;;;;;;;5051230;28;20450;-75
2022/08/27 03:07:23;;;;;;;14.93;11.23;;;;;;;;;;5053452;28;20458;-75
2022/08/27 03:09:51;;;;;;;12.97;9.37;;;;;;;;;;5051924;28;20459;-75
2022/08/27 03:12:19;;;;;;;17.27;11.23;;;;;;;;;;5051919;28;20469;-75
2022/08/27 03:14:46;;;;;;;18.47;10.97;;;;;;;;;;5051257;28;20474;-76
2022/08/27 03:20:00;;;;;;;13.67;10.87;;;;;;;;;;5051010;28;20430;-75
2022/08/27 03:22:27;;;;;;;16.23;11.63;;;;;;;;;;5051786;28;20493;-75
2022/08/27 03:24:56;;;;;;;13.60;10.70;;;;;;;;;;5050761;28;20446;-74
2022/08/27 03:27:23;;;;;;;15.57;11.67;;;;;;;;;;5051641;28;20950;-75
2022/08/27 03:29:50;;;;;;;17.87;12.50;;;;;;;;;;5051516;28;20952;-74
2022/08/27 03:32:17;;;;;;;12.70;10.13;;;;;;;;;;5053171;28;20465;-74
2022/08/27 03:34:45;;;;;;;11.60;8.80;;;;;;;;;;5055780;28;20458;-75
2022/08/27 03:37:12;;;;;;;13.77;9.30;;;;;;;;;;5068103;28;20953;-75
2022/08/27 03:39:39;;;;;;;13.50;9.93;;;;;;;;;;5071302;28;20454;-72
2022/08/27 03:42:08;;;;;;;12.80;9.63;;;;;;;;;;5074249;28;20497;-76
2022/08/27 03:44:35;;;;;;;13.60;10.20;;;;;;;;;;5061242;28;20462;-76
2022/08/27 03:47:02;;;;;;;15.33;10.67;;;;;;;;;;5071362;28;20475;-73
2022/08/27 03:49:30;;;;;;;12.70;8.97;;;;;;;;;;5065108;28;20469;-77
2022/08/27 03:51:57;;;;;;;13.67;9.00;;;;;;;;;;5056547;28;20478;-76
2022/08/27 03:54:25;;;;;;;11.87;9.10;;;;;;;;;;5052142;28;20538;-77
2022/08/27 03:56:53;;;;;;;10.87;8.90;;;;;;;;;;5050883;28;20450;-76
2022/08/27 03:59:22;;;;;;;12.63;8.33;;;;;;;;;;5051592;28;20955;-76
2022/08/27 04:01:49;;;;;;;12.63;9.17;;;;;;;;;;5050588;28;20474;-76
2022/08/27 04:04:16;;;;;;;12.40;8.90;;;;;;;;;;5050913;28;20447;-76
2022/08/27 04:06:43;;;;;;;12.77;8.73;;;;;;;;;;5051250;28;20438;-77
2022/08/27 04:09:11;;;;;;;11.27;9.10;;;;;;;;;;5050179;28;20534;-77
2022/08/27 04:11:38;;;;;;;11.87;9.23;;;;;;;;;;5051067;28;20496;-77
2022/08/27 04:14:06;;;;;;;11.20;8.67;;;;;;;;;;5049695;28;20482;-76
2022/08/27 04:16:34;;;;;;;14.43;8.83;;;;;;;;;;5051030;28;20573;-77
2022/08/27 04:19:02;;;;;;;13.43;9.00;;;;;;;;;;5050083;28;20451;-78
2022/08/27 04:21:31;;;;;;;13.53;8.90;;;;;;;;;;5050497;28;20488;-78
2022/08/27 04:23:59;;;;;;;12.50;9.30;;;;;;;;;;5050127;28;20854;-78
2022/08/27 04:26:26;;;;;;;12.00;8.50;;;;;;;;;;5050711;28;20449;-78
2022/08/27 04:28:54;;;;;;;12.83;9.60;;;;;;;;;;5050257;28;20465;-77
2022/08/27 04:31:21;;;;;;;11.47;9.07;;;;;;;;;;5049604;28;20918;-78
2022/08/27 04:33:50;;;;;;;10.07;7.90;;;;;;;;;;5050114;28;20443;-78
2022/08/27 04:36:17;;;;;;;12.23;8.70;;;;;;;;;;5050318;28;20945;-75
2022/08/27 04:38:44;;;;;;;13.87;9.37;;;;;;;;;;5050838;28;20524;-79
2022/08/27 04:41:21;;;;;;;14.30;9.90;;;;;;;;;;5049823;28;20483;-79
2022/08/27 04:43:48;;;;;;;16.10;11.87;;;;;;;;;;5049706;28;20450;-78
2022/08/27 04:46:20;;;;;;;13.70;10.10;;;;;;;;;;5050723;28;20451;-79
2022/08/27 04:48:47;;;;;;;16.90;12.97;;;;;;;;;;5050485;28;20446;-69
2022/08/27 04:51:16;;;;;;;18.50;11.60;;;;;;;;;;5050497;28;20442;-80
2022/08/27 04:53:43;;;;;;;14.63;11.70;;;;;;;;;;5050055;28;20472;-80
2022/08/27 04:56:13;;;;;;;14.30;10.90;;;;;;;;;;5049712;28;20451;-80
2022/08/27 04:58:40;;;;;;;16.43;11.53;;;;;;;;;;5050593;28;20462;-80
2022/08/27 05:01:07;;;;;;;14.10;10.77;;;;;;;;;;5049498;28;20982;-80
2022/08/27 05:03:34;;;;;;;18.80;12.97;;;;;;;;;;5049923;28;20454;-76
2022/08/27 05:06:02;;;;;;;20.83;11.57;;;;;;;;;;5050056;28;20560;-82
2022/08/27 05:08:31;;;;;;;16.77;12.30;;;;;;;;;;5049916;28;20466;-80
2022/08/27 05:10:59;;;;;;;19.33;12.03;;;;;;;;;;5050149;28;20522;-81
2022/08/27 05:13:26;;;;;;;25.27;13.10;;;;;;;;;;5050319;28;20508;-81
2022/08/27 05:15:58;;;;;;;21.20;12.80;;;;;;;;;;5049521;28;21009;-81
2022/08/27 05:18:26;;;;;;;17.50;12.70;;;;;;;;;;5050335;28;20489;-81
2022/08/27 05:20:53;;;;;;;16.00;12.50;;;;;;;;;;5049773;28;20451;-79
2022/08/27 05:23:21;;;;;;;16.93;11.53;;;;;;;;;;5049993;28;21267;-82
2022/08/27 05:25:50;;;;;;;16.80;11.87;;;;;;;;;;5049811;28;20533;-78
2022/08/27 05:28:20;;;;;;;19.57;14.10;;;;;;;;;;5050028;28;20442;-77
2022/08/27 05:30:48;;;;;;;16.37;13.30;;;;;;;;;;5050181;28;20496;-69
2022/08/27 05:33:16;;;;;;;18.50;14.80;;;;;;;;;;5050605;28;20452;-83
2022/08/27 05:35:44;;;;;;;17.97;13.53;;;;;;;;;;5050301;28;20775;-83
2022/08/27 05:38:11;;;;;;;15.90;11.87;;;;;;;;;;5049597;28;20862;-82
2022/08/27 05:40:39;;;;;;;21.17;14.57;;;;;;;;;;5050321;28;20451;-83
2022/08/27 05:43:07;;;;;;;18.73;14.00;;;;;;;;;;5051543;28;20489;-84
2022/08/27 05:45:40;;;;;;;19.50;13.33;;;;;;;;;;5053479;28;20455;-83
2022/08/27 05:48:10;;;;;;;20.77;13.50;;;;;;;;;;5053850;28;20438;-84
2022/08/27 05:50:37;;;;;;;18.57;13.57;;;;;;;;;;5054176;28;20487;-84
2022/08/27 05:53:04;;;;;;;22.00;14.27;;;;;;;;;;5053246;28;20563;-84
2022/08/27 05:55:36;;;;;;;24.33;14.73;;;;;;;;;;5053014;28;20454;-84
2022/08/27 05:58:03;;;;;;;16.50;12.57;;;;;;;;;;5053152;28;20459;-85
2022/08/27 06:03:16;;;;;;;17.37;12.77;;;;;;;;;;5053791;28;20580;-83
2022/08/27 06:05:43;;;;;;;16.50;12.30;;;;;;;;;;5053837;28;20549;-85
2022/08/27 06:08:11;;;;;;;17.07;13.07;;;;;;;;;;5053265;28;20513;-85
2022/08/27 06:10:40;;;;;;;20.50;14.87;;;;;;;;;;5054043;28;20806;-85
2022/08/27 06:13:08;;;;;;;18.60;12.77;;;;;;;;;;5054270;28;20792;-86
2022/08/27 06:15:36;;;;;;;20.40;13.20;;;;;;;;;;5053887;28;20478;-86
2022/08/27 06:18:04;;;;;;;17.80;12.57;;;;;;;;;;5053329;28;20537;-87
2022/08/27 06:20:31;;;;;;;14.90;12.67;;;;;;;;;;5054107;28;20533;-86
2022/08/27 06:22:59;;;;;;;19.00;13.53;;;;;;;;;;5055516;28;20981;-85
2022/08/27 06:25:26;;;;;;;17.87;12.20;;;;;;;;;;5072681;28;20475;-82
2022/08/27 06:27:53;;;;;;;17.20;12.37;;;;;;;;;;5071772;28;20466;-78
2022/08/27 06:30:20;;;;;;;16.87;14.07;;;;;;;;;;5070060;28;20506;-84
2022/08/27 06:32:50;;;;;;;16.57;13.17;;;;;;;;;;5067106;28;20474;-74
2022/08/27 06:35:18;;;;;;;19.87;14.03;;;;;;;;;;5058871;28;20446;-79
2022/08/27 06:37:45;;;;;;;15.10;11.13;;;;;;;;;;5042253;28;20956;-84
2022/08/27 06:40:12;;;;;;;18.10;13.17;;;;;;;;;;5053857;28;20492;-84
2022/08/27 06:42:39;;;;;;;18.97;12.90;;;;;;;;;;5053173;28;20569;-84
2022/08/27 06:45:07;;;;;;;15.37;12.20;;;;;;;;;;5051978;28;21029;-84
2022/08/27 06:47:35;;;;;;;17.50;13.37;;;;;;;;;;5052767;28;20450;-84
2022/08/27 06:50:03;;;;;;;18.07;12.47;;;;;;;;;;5052380;28;20449;-86
2022/08/27 06:52:30;;;;;;;18.30;13.30;;;;;;;;;;5053114;28;20447;-85
2022/08/27 06:54:58;;;;;;;18.07;13.60;;;;;;;;;;5051712;28;20534;-87
2022/08/27 06:57:25;;;;;;;15.47;11.97;;;;;;;;;;5053177;28;20777;-86
2022/08/27 06:59:52;;;;;;;18.17;13.10;;;;;;;;;;5053089;28;20461;-86
2022/08/27 07:02:19;;;;;;;14.73;12.43;;;;;;;;;;5053183;28;20574;-86
2022/08/27 07:04:46;;;;;;;15.30;13.33;;;;;;;;;;5046851;28;20457;-86
2022/08/27 07:07:15;;;;;;;14.77;12.87;;;;;;;;;;5051718;28;20454;-84
2022/08/27 07:09:42;;;;;;;17.03;13.20;;;;;;;;;;5052508;28;20455;-76
2022/08/27 07:12:09;;;;;;;14.20;12.37;;;;;;;;;;5051823;28;20457;-78
2022/08/27 07:14:36;;;;;;;15.67;12.13;;;;;;;;;;5051228;28;20481;-74
2022/08/27 07:17:04;;;;;;;16.13;12.90;;;;;;;;;;5047844;28;20443;-74
2022/08/27 07:19:32;;;;;;;16.93;12.80;;;;;;;;;;5051937;28;20525;-73
2022/08/27 07:21:59;;;;;;;16.90;12.70;;;;;;;;;;5051133;28;20482;-73
2022/08/27 07:24:28;;;;;;;16.63;12.00;;;;;;;;;;5051818;28;20803;-80
2022/08/27 07:26:55;;;;;;;15.30;12.03;;;;;;;;;;5052012;28;20450;-76
2022/08/27 07:29:23;;;;;;;14.97;12.07;;;;;;;;;;5052291;28;20926;-76
2022/08/27 07:31:50;;;;;;;12.70;10.70;;;;;;;;;;5051122;28;20655;-81
2022/08/27 07:34:17;;;;;;;15.37;9.93;;;;;;;;;;5048920;28;20479;-77
2022/08/27 07:36:44;;;;;;;15.17;12.90;;;;;;;;;;5059698;28;20423;-77
2022/08/27 07:39:15;;;;;;;14.40;11.50;;;;;;;;;;5074474;28;20443;-81
2022/08/27 07:44:28;;;;;;;14.70;11.80;;;;;;;;;;5053278;28;20487;-78
2022/08/27 07:46:57;;;;;;;16.30;12.30;;;;;;;;;;5051632;28;20458;-77
2022/08/27 07:49:24;;;;;;;14.50;11.40;;;18.20;99.90;;;;;;5051416;28;20447;-70
2022/08/27 07:51:51;;;;;;;16.67;12.53;;;20.50;99.90;;;;;;5050481;28;20823;-70
2022/08/27 07:54:21;;;;;;;13.87;11.87;;;20.60;99.90;;;;;;5050376;28;20485;-69
2022/08/27 07:56:49;;;;;;;17.67;13.20;;;20.60;99.90;;;;;;5050920;28;20801;-67
2022/08/27 07:59:16;;;;;;;16.23;13.23;;;20.70;99.90;;;;;;5050975;28;20462;-71
2022/08/27 08:01:43;;;;;;;16.50;12.40;;;20.70;99.90;;;;;;5051073;28;20549;-69
2022/08/27 08:04:10;;;;;;;16.37;12.00;;;20.60;99.90;;;;;;5049941;28;20661;-71
2022/08/27 08:06:38;;;;;;;18.23;13.60;;;20.70;99.90;;;;;;5050601;28;20811;-70
2022/08/27 08:09:05;;;;;;;11.97;10.63;;;;;;;;;;5050044;28;20971;-70
2022/08/27 08:11:33;;;;;;;15.50;12.73;;;;;;;;;;5051031;28;20515;-70
2022/08/27 08:14:02;;;;;;;15.50;12.07;;;;;;;;;;5049793;28;20478;-70
2022/08/27 08:16:29;;;;;;;16.50;13.43;;;;;;;;;;5050454;28;20946;-70
2022/08/27 08:18:58;;;;;;;15.60;12.17;;;;;;;;;;5050551;28;20529;-70
2022/08/27 08:21:26;;;;;;;17.70;13.90;;;;;;;;;;5050843;28;20453;-70
2022/08/27 08:23:53;;;;;;;17.40;12.93;;;;;;;;;;5049651;28;20569;-69
2022/08/27 08:26:21;;;;;;;17.77;13.60;;;;;;;;;;5050715;28;20446;-70
2022/08/27 08:28:49;;;;;;;16.10;13.00;;;;;;;;;;5049837;28;20808;-70
2022/08/27 08:31:17;;;;;;;28.23;13.40;;;;;;;;;;5050336;28;20533;-70
2022/08/27 08:33:45;;;;;;;17.60;13.23;;;;;;;;;;5049616;28;20454;-70
2022/08/27 08:36:14;;;;;;;21.80;16.07;;;;;;;;;;5049393;28;20457;-72
2022/08/27 08:38:42;;;;;;;20.03;14.23;;;;;;;;;;5050356;28;20674;-69
2022/08/27 08:41:30;;;;;;;18.97;14.97;;;;;;;;;;5050084;28;20443;-69
2022/08/27 08:43:57;;;;;;;17.83;13.10;;;;;;;;;;5048908;28;20605;-71
2022/08/27 08:46:31;;;;;;;21.07;14.53;;;;;;;;;;5049786;28;20454;-71
2022/08/27 08:49:02;;;;;;;18.80;14.00;;;;;;;;;;5046129;28;20469;-71
2022/08/27 08:51:30;;;;;;;21.63;15.50;;;;;;;;;;5049681;28;20435;-68
2022/08/27 08:53:59;;;;;;;21.90;15.33;;;;;;;;;;5048392;28;20950;-65
2022/08/27 08:56:30;;;;;;;21.40;15.40;;;;;;;;;;5050143;28;20454;-66
2022/08/27 08:58:59;;;;;;;18.80;14.60;;;;;;;;;;5049139;28;20447;-66
2022/08/27 09:01:28;;;;;;;20.33;15.00;;;;;;;;;;5049064;28;20533;-68
2022/08/27 09:03:56;;;;;;;20.60;14.77;;;;;;;;;;5048669;28;20624;-68
2022/08/27 09:06:32;;;;;;;20.97;15.07;;;;;;;;;;5049427;28;20481;-67
2022/08/27 09:09:03;;;;;;;22.97;15.47;;;;;;;;;;5047180;28;20530;-66
2022/08/27 09:11:36;;;;;;;23.33;14.17;;;;;;;;;;5049079;28;20451;-65
2022/08/27 09:14:06;;;;;;;18.53;13.00;;;;;;;;;;5048199;28;20478;-65
2022/08/27 09:16:35;;;;;;;18.77;13.93;;;;;;;;;;5055785;28;20470;-65
2022/08/27 09:19:03;;;;;;;19.60;14.27;;;;;;;;;;5052298;28;20537;-66
2022/08/27 09:21:32;;;;;;;20.80;13.77;;;;;;;;;;5053563;28;20454;-66
2022/08/27 09:24:05;;;;;;;18.17;12.70;;;;;;;;;;5044837;28;20482;-66
2022/08/27 09:26:33;;;;;;;17.23;12.87;;;;;;;;;;5053347;28;20457;-69
2022/08/27 09:29:15;;;;;;;12.43;9.67;;;;;;;;;;5053302;28;20844;-69
2022/08/27 09:31:45;;;;;;;9.30;8.40;;;;;;;;;;5043802;28;20460;-69
2022/08/27 09:34:12;;;;;;;13.60;9.00;;;;;;;;;;5053324;28;20454;-69
2022/08/27 09:36:49;;;;;;;10.93;9.57;;;;;;;;;;5053560;28;20825;-67
2022/08/27 09:39:16;;;;;;;11.37;9.17;;;;;;;;;;5052786;28;20438;-66
2022/08/27 09:41:45;;;;;;;10.27;8.60;;;;;;;;;;5053226;28;20450;-70
2022/08/27 09:44:14;;;;;;;10.57;9.47;;;;;;;;;;5050212;28;20486;-69
2022/08/27 09:46:52;;;;;;;8.90;7.23;;;;;;;;;;5051390;28;20458;-70
2022/08/27 09:49:20;;;;;;;7.43;6.17;;;;;;;;;;5051252;28;20442;-69
2022/08/27 09:51:48;;;;;;;9.47;7.30;;;;;;;;;;5052205;28;20545;-67
2022/08/27 09:54:25;;;;;;;6.87;6.10;;;;;;;;;;5052117;28;20790;-70
2022/08/27 09:56:52;;;;;;;7.90;6.87;;;;;;;;;;5052287;28;20450;-74
2022/08/27 09:59:22;;;;;;;7.27;6.47;;;;;;;;;;5053326;28;20801;-73
2022/08/27 10:01:51;;;;;;;7.27;6.50;;;;;;;;;;5052967;28;20515;-70
2022/08/27 10:04:27;;;;;;;7.67;6.83;;;;;;;;;;5041964;28;20525;-69
2022/08/27 10:06:54;;;;;;;7.73;5.87;;;;;;;;;;5052135;28;20442;-69
2022/08/27 10:09:24;;;;;;;6.67;5.97;;;;;;;;;;5052779;28;20470;-69
2022/08/27 10:11:55;;;;;;;6.50;5.47;;;;;;;;;;5052220;28;20517;-68
2022/08/27 10:14:25;;;;;;;7.60;5.97;;;;;;;;;;5052369;28;21154;-69
2022/08/27 10:17:02;;;;;;;5.90;5.30;;;;;;;;;;5052631;28;20891;-75
2022/08/27 10:19:42;;;;;;;7.57;6.23;;;;;;;;;;5052419;28;20460;-67
2022/08/27 10:22:13;;;;;;;6.10;5.37;;;;;;;;;;5051849;28;20450;-66
2022/08/27 10:24:44;;;;;;;6.17;5.57;;;;;;;;;;5052107;28;20496;-68
2022/08/27 10:27:14;;;;;;;6.10;5.50;;;;;;;;;;5052343;28;20443;-68
2022/08/27 10:29:46;;;;;;;6.97;5.90;;;;;;;;;;5048806;28;20652;-70
2022/08/27 10:32:24;;;;;;;8.07;6.00;;;;;;;;;;5052287;28;20450;-69
2022/08/27 10:34:59;;;;;;;7.47;6.20;;;;;;;;;;5044410;28;20457;-69
2022/08/27 10:37:31;;;;;;;11.50;9.03;;;;;;;;;;5051880;28;20473;-68
2022/08/27 10:40:04;;;;;;;9.50;7.33;;;;;;;;;;5044234;28;20525;-69
2022/08/27 10:42:35;;;;;;;8.77;6.83;;;;;;;;;;5050027;28;20524;-69
2022/08/27 10:45:06;;;;;;;8.03;6.43;;;;;;;;;;5048819;28;20571;-68
2022/08/27 10:47:43;;;;;;;6.87;6.13;;;;;;;;;;5049190;28;20453;-68
2022/08/27 10:50:16;;;;;;;8.07;7.27;;;;;;;;;;5048923;28;21088;-68
2022/08/27 10:52:45;;;;;;;8.33;6.30;;;;;;;;;;5049360;28;20458;-70
2022/08/27 10:55:15;;;;;;;9.50;7.43;;;;;;;;;;5049402;28;20454;-70
2022/08/27 10:57:51;;;;;;;9.00;7.90;;;;;;;;;;5036405;28;20532;-71
2022/08/27 11:00:19;;;;;;;12.80;9.03;;;;;;;;;;5049485;28;20471;-68
2022/08/27 11:02:50;;;;;;;8.13;7.33;;;;;;;;;;5048995;28;21085;-70
2022/08/27 11:05:21;;;;;;;9.53;7.30;;;;;;;;;;5048906;28;20445;-69
2022/08/27 11:07:51;;;;;;;10.70;7.47;;;;;;;;;;5048654;28;20446;-68
2022/08/27 11:10:24;;;;;;;11.47;8.07;;;;;;;;;;5047418;28;20439;-68
2022/08/27 11:12:53;;;;;;;9.73;8.17;;;;;;;;;;5048821;28;20434;-68
2022/08/27 11:15:23;;;;;;;8.87;7.17;;;;;;;;;;5048985;28;20841;-67
2022/08/27 11:17:52;;;;;;;12.80;8.70;;;;;;;;;;5056340;28;20459;-67
2022/08/27 11:20:22;;;;;;;11.10;8.67;;;;;;;;;;5052515;28;20460;-67
2022/08/27 11:22:51;;;;;;;9.30;8.30;;;;;;;;;;5055352;28;20457;-67
2022/08/27 11:25:27;;;;;;;10.10;8.47;;;;;;;;;;5040599;28;21032;-71
2022/08/27 11:27:57;;;;;;;10.37;9.10;;;;;;;;;;5048246;28;20831;-67
2022/08/27 11:30:26;;;;;;;11.17;9.57;;;;;;;;;;5048871;28;20784;-68
2022/08/27 11:32:58;;;;;;;9.23;8.10;;;;;;;;;;5048179;28;20550;-67
2022/08/27 11:35:31;;;;;;;10.83;9.17;;;;;;;;;;5046374;28;20738;-67
2022/08/27 11:38:20;;;;;;;9.20;8.27;;;;;;;;;;5041615;28;20449;-67
2022/08/27 11:40:55;;;;;;;8.77;7.47;;;;;;;;;;5048371;28;20808;-66
2022/08/27 11:43:25;;;;;;;10.10;8.17;;;;;;;;;;5047893;28;20516;-68
2022/08/27 11:45:54;;;;;;;10.57;8.80;;;;;;;;;;5047383;28;20474;-68
2022/08/27 11:48:23;;;;;;;10.63;8.83;;;;;;;;;;5048635;28;20453;-68
2022/08/27 11:51:00;;;;;;;12.07;8.50;;;;;;;;;;5047947;28;20883;-67
2022/08/27 11:53:29;;;;;;;9.53;8.23;;;;;;;;;;5048047;28;20447;-67
2022/08/27 11:55:57;;;;;;;9.37;8.37;;;;;;;;;;5041356;28;20446;-67
2022/08/27 11:58:26;;;;;;;9.07;8.13;;;;;;;;;;5046453;28;20473;-67
2022/08/27 12:00:53;;;;;;;9.90;8.03;;;;;;;;;;5035613;28;20577;-67
2022/08/27 12:03:26;;;;;;;8.30;7.47;;;;;;;;;;5047336;28;20439;-67
2022/08/27 12:06:10;;;;;;;9.60;8.67;;;;;;;;;;5045701;28;20463;-66
2022/08/27 12:08:37;;;;;;;10.93;8.70;;;;;;;;;;5042730;28;20876;-67
2022/08/27 12:11:12;;;;;;;9.90;7.77;;;;;;;;;;5045506;28;20538;-67
2022/08/27 12:13:41;;;;;;;9.27;8.07;;;;;;;;;;5046891;28;20484;-66
2022/08/27 12:16:16;;;;;;;12.93;8.67;;;;;;;;;;5048872;28;20763;-66
2022/08/27 12:18:50;;;;;;;10.43;9.33;;;;;;;;;;5047808;28;20887;-71
2022/08/27 12:21:26;;;;;;;8.43;7.23;;;;;;;;;;5048406;28;20778;-73
2022/08/27 12:24:02;;;;;;;12.47;9.47;;;;;;;;;;5047435;28;20820;-68
2022/08/27 12:26:31;;;;;;;12.57;9.83;;;;;;;;;;5048838;28;20450;-68
2022/08/27 12:29:13;;;;;;;9.70;8.07;;;;;;;;;;5048024;28;20760;-68
2022/08/27 12:31:42;;;;;;;12.00;9.90;;;;;;;;;;5036408;28;20454;-68
2022/08/27 12:34:14;;;;;;;11.90;9.20;;;;;;;;;;5049638;28;21011;-68
2022/08/27 12:36:42;;;;;;;12.03;9.40;;;;;;;;;;5050750;28;20442;-68
2022/08/27 12:39:14;;;;;;;12.67;8.60;;;;;;;;;;5049718;28;20449;-68
2022/08/27 12:41:46;;;;;;;9.93;8.40;;;;;;;;;;5050687;28;20443;-68
2022/08/27 12:44:15;;;;;;;12.13;9.50;;;;;;;;;;5049856;28;20588;-68
2022/08/27 12:46:46;;;;;;;11.90;9.93;;;;;;;;;;5050457;28;20492;-68
2022/08/27 12:49:17;;;;;;;12.37;9.27;;;;;;;;;;5050341;28;20446;-68
2022/08/27 12:51:46;;;;;;;11.70;9.70;;;;;;;;;;5050292;28;20542;-68
2022/08/27 12:54:23;;;;;;;13.40;10.53;;;;;;;;;;5049092;28;20985;-68
2022/08/27 12:56:55;;;;;;;11.80;9.37;;;;;;;;;;5049002;28;20442;-68
2022/08/27 12:59:34;;;;;;;12.03;10.23;;;;;;;;;;5050129;28;20537;-68
2022/08/27 13:02:06;;;;;;;14.03;9.87;;;;;;;;;;5049346;28;20999;-68
2022/08/27 13:04:33;;;;;;;10.83;9.50;;;;;;;;;;5049908;28;20481;-68
2022/08/27 13:07:02;;;;;;;14.13;10.73;;;;;;;;;;5049220;28;20517;-68
2022/08/27 13:09:30;;;;;;;11.13;9.50;;;;;;;;;;5049974;28;20453;-68
2022/08/27 13:11:58;;;;;;;12.17;10.33;;;;;;;;;;5049663;28;20446;-68
2022/08/27 13:14:26;;;;;;;11.60;9.80;;;;;;;;;;5049551;28;20530;-68
2022/08/27 13:16:54;;;;;;;13.40;10.17;;;;;;;;;;5049228;28;20545;-68
2022/08/27 13:19:24;;;;;;;11.57;8.80;;;;;;;;;;5050090;28;20450;-69
2022/08/27 13:21:52;;;;;;;12.17;9.20;;;;;;;;;;5049520;28;20640;-68
2022/08/27 13:24:27;;;;;;;10.17;9.17;;;;;;;;;;5049290;28;20916;-68
2022/08/27 13:26:56;;;;;;;13.40;11.27;;;;;;;;;;5049192;28;20533;-68
2022/08/27 13:29:23;;;;;;;18.00;13.57;;;;;;;;;;5049225;28;20512;-69
2022/08/27 13:31:50;;;;;;;18.13;14.43;;;;;;;;;;5049206;28;20880;-69
2022/08/27 13:34:19;;;;;;;12.63;10.00;;;;;;;;;;5047893;28;20486;-69
2022/08/27 13:36:54;;;;;;;15.13;10.73;;;;;;;;;;5049617;28;20453;-69
2022/08/27 13:39:23;;;;;;;13.97;11.67;;;;;;;;;;5047785;28;20462;-69
2022/08/27 13:41:51;;;;;;;11.80;10.50;;;;;;;;;;5047831;28;20558;-69
2022/08/27 13:44:20;;;;;;;13.17;10.07;;;;;;;;;;5048883;28;20486;-68
2022/08/27 13:46:49;;;;;;;13.37;10.40;;;;;;;;;;5051242;28;20809;-67
2022/08/27 13:49:20;;;;;;;14.70;10.57;;;;;;;;;;5045275;28;20461;-68
2022/08/27 13:51:48;;;;;;;12.10;9.70;;;;;;;;;;5047164;28;20465;-67
2022/08/27 13:54:14;;;;;;;12.27;10.60;;;;;;;;;;5048011;28;20540;-68
2022/08/27 13:57:02;;;;;;;12.13;9.97;;;;;;;;;;5048925;28;20929;-68
2022/08/27 13:59:29;;;;;;;11.53;9.57;;;;;;;;;;5047131;28;20965;-68
2022/08/27 14:01:57;;;;;;;15.53;9.30;;;;;;;;;;5049000;28;20447;-68
2022/08/27 14:04:26;;;;;;;13.10;9.47;;;;;;;;;;5049648;28;20474;-68
2022/08/27 14:06:54;;;;;;;12.97;9.70;;;;;;;;;;5052059;28;20533;-68
2022/08/27 14:09:24;;;;;;;13.30;9.60;;;;;;;;;;5050326;28;20524;-68
2022/08/27 14:12:00;;;;;;;12.97;10.63;;;;;;;;;;5051874;28;20523;-68
2022/08/27 14:14:27;;;;;;;10.73;9.50;;;;;;;;;;5052606;28;20989;-68
2022/08/27 14:16:58;;;;;;;11.90;9.40;;;;;;;;;;5052519;28;20531;-67
2022/08/27 14:19:26;;;;;;;11.17;8.73;;;;;;;;;;5053134;28;20858;-67
2022/08/27 14:21:54;;;;;;;11.57;9.17;;;;;;;;;;5052395;28;20457;-68
2022/08/27 14:24:21;;;;;;;10.50;8.27;;;;;;;;;;5052364;28;20482;-69
2022/08/27 14:26:49;;;;;;;11.23;9.60;;;;;;;;;;5052366;28;20810;-67
2022/08/27 14:29:18;;;;;;;10.50;9.40;;;;;;;;;;5052996;28;20868;-70
2022/08/27 14:31:45;;;;;;;8.80;7.90;;;;;;;;;;5050557;28;20541;-68
2022/08/27 14:34:13;;;;;;;11.73;10.53;;;;;;;;;;5051074;28;20896;-69
2022/08/27 14:36:41;;;;;;;11.20;8.90;;;;;;;;;;5052128;28;20785;-69
2022/08/27 14:39:09;;;;;;;10.43;9.30;;;;;;;;;;5050150;28;20468;-67
2022/08/27 14:41:36;;;;;;;10.27;9.17;;;;;;;;;;5051805;28;20557;-68
2022/08/27 14:44:03;;;;;;;14.10;8.97;;;;;;;;;;5049463;28;20471;-68